sensor_id;sensor_type;location;lat;lon;timestamp;P1;durP1;ratioP1;P2;durP2;ratioP2
25079;SDS011;13071;48.868;9.996;2022-08-19T00:00:46;19.60;;;11.90;;
25079;SDS011;13071;48.868;9.996;2022-08-19T00:03:14;16.33;;;11.48;;
25079;SDS011;13071;48.868;9.996;2022-08-19T00:05:41;17.90;;;11.60;;
25079;SDS011;13071;48.868;9.996;2022-08-19T00:08:07;19.08;;;11.98;;
25079;SDS011;13071;48.868;9.996;2022-08-19T00:10:34;21.08;;;12.80;;
25079;SDS011;13071;48.868;9.996;2022-08-19T00:13:02;20.17;;;12.65;;
25079;SDS011;13071;48.868;9.996;2022-08-19T00:15:29;18.02;;;11.60;;
25079;SDS011;13071;48.868;9.996;2022-08-19T00:17:56;19.27;;;11.98;;
25079;SDS011;13071;48.868;9.996;2022-08-19T00:20:23;19.83;;;12.35;;
25079;SDS011;13071;48.868;9.996;2022-08-19T00:22:50;23.45;;;12.65;;
25079;SDS011;13071;48.868;9.996;2022-08-19T00:25:17;23.00;;;13.82;;
25079;SDS011;13071;48.868;9.996;2022-08-19T00:27:44;18.55;;;11.77;;
25079;SDS011;13071;48.868;9.996;2022-08-19T00:30:13;20.48;;;12.82;;
25079;SDS011;13071;48.868;9.996;2022-08-19T00:32:40;20.63;;;13.50;;
25079;SDS011;13071;48.868;9.996;2022-08-19T00:35:07;22.95;;;13.63;;
25079;SDS011;13071;48.868;9.996;2022-08-19T00:37:35;19.52;;;13.13;;
25079;SDS011;13071;48.868;9.996;2022-08-19T00:40:02;20.45;;;12.38;;
25079;SDS011;13071;48.868;9.996;2022-08-19T00:42:31;19.17;;;12.88;;
25079;SDS011;13071;48.868;9.996;2022-08-19T00:44:58;22.50;;;13.55;;
25079;SDS011;13071;48.868;9.996;2022-08-19T00:47:26;23.42;;;13.85;;
25079;SDS011;13071;48.868;9.996;2022-08-19T00:49:54;24.40;;;13.93;;
25079;SDS011;13071;48.868;9.996;2022-08-19T00:52:23;21.77;;;13.10;;
25079;SDS011;13071;48.868;9.996;2022-08-19T00:54:54;25.50;;;14.60;;
25079;SDS011;13071;48.868;9.996;2022-08-19T00:57:23;20.00;;;12.45;;
25079;SDS011;13071;48.868;9.996;2022-08-19T00:59:53;21.13;;;12.15;;
25079;SDS011;13071;48.868;9.996;2022-08-19T01:02:21;22.48;;;14.23;;
25079;SDS011;13071;48.868;9.996;2022-08-19T01:04:51;21.23;;;13.75;;
25079;SDS011;13071;48.868;9.996;2022-08-19T01:07:18;21.40;;;13.00;;
25079;SDS011;13071;48.868;9.996;2022-08-19T01:09:44;26.95;;;13.48;;
25079;SDS011;13071;48.868;9.996;2022-08-19T01:12:11;21.10;;;13.27;;
25079;SDS011;13071;48.868;9.996;2022-08-19T01:14:39;20.60;;;13.05;;
25079;SDS011;13071;48.868;9.996;2022-08-19T01:17:06;19.75;;;13.00;;
25079;SDS011;13071;48.868;9.996;2022-08-19T01:19:35;21.02;;;13.25;;
25079;SDS011;13071;48.868;9.996;2022-08-19T01:22:06;20.15;;;12.93;;
25079;SDS011;13071;48.868;9.996;2022-08-19T01:24:40;19.98;;;12.93;;
25079;SDS011;13071;48.868;9.996;2022-08-19T01:27:07;22.38;;;13.40;;
25079;SDS011;13071;48.868;9.996;2022-08-19T01:29:36;23.42;;;13.55;;
25079;SDS011;13071;48.868;9.996;2022-08-19T01:32:05;24.20;;;13.75;;
25079;SDS011;13071;48.868;9.996;2022-08-19T01:34:33;25.98;;;14.45;;
25079;SDS011;13071;48.868;9.996;2022-08-19T01:37:00;21.92;;;13.23;;
25079;SDS011;13071;48.868;9.996;2022-08-19T01:39:33;20.50;;;13.00;;
25079;SDS011;13071;48.868;9.996;2022-08-19T01:42:02;21.75;;;13.55;;
25079;SDS011;13071;48.868;9.996;2022-08-19T01:44:29;23.25;;;13.85;;
25079;SDS011;13071;48.868;9.996;2022-08-19T01:46:56;23.52;;;12.65;;
25079;SDS011;13071;48.868;9.996;2022-08-19T01:49:23;21.40;;;13.38;;
25079;SDS011;13071;48.868;9.996;2022-08-19T01:51:51;22.42;;;13.35;;
25079;SDS011;13071;48.868;9.996;2022-08-19T01:54:20;21.50;;;13.30;;
25079;SDS011;13071;48.868;9.996;2022-08-19T01:56:48;19.17;;;13.15;;
25079;SDS011;13071;48.868;9.996;2022-08-19T01:59:17;21.13;;;13.23;;
25079;SDS011;13071;48.868;9.996;2022-08-19T02:01:47;21.75;;;13.80;;
25079;SDS011;13071;48.868;9.996;2022-08-19T02:04:14;23.02;;;13.68;;
25079;SDS011;13071;48.868;9.996;2022-08-19T02:06:40;22.33;;;13.50;;
25079;SDS011;13071;48.868;9.996;2022-08-19T02:09:08;19.05;;;12.77;;
25079;SDS011;13071;48.868;9.996;2022-08-19T02:11:35;27.13;;;14.27;;
25079;SDS011;13071;48.868;9.996;2022-08-19T02:14:04;22.25;;;13.23;;
25079;SDS011;13071;48.868;9.996;2022-08-19T02:16:34;24.30;;;14.45;;
25079;SDS011;13071;48.868;9.996;2022-08-19T02:19:02;23.35;;;14.27;;
25079;SDS011;13071;48.868;9.996;2022-08-19T02:21:29;20.33;;;13.75;;
25079;SDS011;13071;48.868;9.996;2022-08-19T02:23:56;21.90;;;13.65;;
25079;SDS011;13071;48.868;9.996;2022-08-19T02:26:23;22.20;;;13.40;;
25079;SDS011;13071;48.868;9.996;2022-08-19T02:28:51;23.98;;;14.10;;
25079;SDS011;13071;48.868;9.996;2022-08-19T02:31:20;25.75;;;13.70;;
25079;SDS011;13071;48.868;9.996;2022-08-19T02:33:50;23.58;;;14.07;;
25079;SDS011;13071;48.868;9.996;2022-08-19T02:36:17;20.60;;;13.00;;
25079;SDS011;13071;48.868;9.996;2022-08-19T02:38:44;26.23;;;14.70;;
25079;SDS011;13071;48.868;9.996;2022-08-19T02:41:11;20.80;;;13.27;;
25079;SDS011;13071;48.868;9.996;2022-08-19T02:43:40;23.90;;;14.82;;
25079;SDS011;13071;48.868;9.996;2022-08-19T02:46:11;23.15;;;13.98;;
25079;SDS011;13071;48.868;9.996;2022-08-19T02:48:42;22.73;;;13.05;;
25079;SDS011;13071;48.868;9.996;2022-08-19T02:51:16;21.40;;;13.45;;
25079;SDS011;13071;48.868;9.996;2022-08-19T02:53:44;20.35;;;12.80;;
25079;SDS011;13071;48.868;9.996;2022-08-19T02:56:11;24.50;;;14.40;;
25079;SDS011;13071;48.868;9.996;2022-08-19T02:58:37;23.02;;;13.45;;
25079;SDS011;13071;48.868;9.996;2022-08-19T03:01:04;23.90;;;14.63;;
25079;SDS011;13071;48.868;9.996;2022-08-19T03:03:31;26.58;;;14.75;;
25079;SDS011;13071;48.868;9.996;2022-08-19T03:06:06;21.92;;;13.57;;
25079;SDS011;13071;48.868;9.996;2022-08-19T03:08:35;23.85;;;13.95;;
25079;SDS011;13071;48.868;9.996;2022-08-19T03:11:03;20.90;;;12.80;;
25079;SDS011;13071;48.868;9.996;2022-08-19T03:13:30;21.10;;;14.00;;
25079;SDS011;13071;48.868;9.996;2022-08-19T03:15:57;25.35;;;14.68;;
25079;SDS011;13071;48.868;9.996;2022-08-19T03:18:24;20.95;;;13.63;;
25079;SDS011;13071;48.868;9.996;2022-08-19T03:20:51;22.77;;;13.52;;
25079;SDS011;13071;48.868;9.996;2022-08-19T03:23:19;22.27;;;13.93;;
25079;SDS011;13071;48.868;9.996;2022-08-19T03:25:49;24.85;;;15.02;;
25079;SDS011;13071;48.868;9.996;2022-08-19T03:28:19;22.38;;;13.60;;
25079;SDS011;13071;48.868;9.996;2022-08-19T03:30:56;22.42;;;14.07;;
25079;SDS011;13071;48.868;9.996;2022-08-19T03:33:25;28.73;;;15.15;;
25079;SDS011;13071;48.868;9.996;2022-08-19T03:35:59;26.48;;;14.38;;
25079;SDS011;13071;48.868;9.996;2022-08-19T03:38:35;20.15;;;12.93;;
25079;SDS011;13071;48.868;9.996;2022-08-19T03:41:04;22.33;;;14.20;;
25079;SDS011;13071;48.868;9.996;2022-08-19T03:43:33;22.95;;;14.73;;
25079;SDS011;13071;48.868;9.996;2022-08-19T03:46:01;24.50;;;14.32;;
25079;SDS011;13071;48.868;9.996;2022-08-19T03:48:29;26.58;;;15.02;;
25079;SDS011;13071;48.868;9.996;2022-08-19T03:50:57;23.23;;;13.68;;
25079;SDS011;13071;48.868;9.996;2022-08-19T03:53:25;23.85;;;14.45;;
25079;SDS011;13071;48.868;9.996;2022-08-19T03:55:52;24.45;;;15.48;;
25079;SDS011;13071;48.868;9.996;2022-08-19T03:58:20;22.98;;;13.88;;
25079;SDS011;13071;48.868;9.996;2022-08-19T04:00:47;24.33;;;15.55;;
25079;SDS011;13071;48.868;9.996;2022-08-19T04:03:14;20.05;;;12.88;;
25079;SDS011;13071;48.868;9.996;2022-08-19T04:05:40;22.70;;;14.48;;
25079;SDS011;13071;48.868;9.996;2022-08-19T04:08:07;24.77;;;14.32;;
25079;SDS011;13071;48.868;9.996;2022-08-19T04:10:35;21.10;;;13.65;;
25079;SDS011;13071;48.868;9.996;2022-08-19T04:13:01;24.05;;;14.93;;
25079;SDS011;13071;48.868;9.996;2022-08-19T04:15:30;24.05;;;13.15;;
25079;SDS011;13071;48.868;9.996;2022-08-19T04:18:03;24.52;;;13.52;;
25079;SDS011;13071;48.868;9.996;2022-08-19T04:20:32;27.05;;;16.85;;
25079;SDS011;13071;48.868;9.996;2022-08-19T04:22:59;25.75;;;15.35;;
25079;SDS011;13071;48.868;9.996;2022-08-19T04:25:26;24.80;;;15.70;;
25079;SDS011;13071;48.868;9.996;2022-08-19T04:27:52;25.10;;;15.30;;
25079;SDS011;13071;48.868;9.996;2022-08-19T04:30:19;23.45;;;14.98;;
25079;SDS011;13071;48.868;9.996;2022-08-19T04:32:48;24.98;;;16.30;;
25079;SDS011;13071;48.868;9.996;2022-08-19T04:35:15;25.15;;;14.93;;
25079;SDS011;13071;48.868;9.996;2022-08-19T04:37:42;24.05;;;14.82;;
25079;SDS011;13071;48.868;9.996;2022-08-19T04:40:09;27.33;;;15.88;;
25079;SDS011;13071;48.868;9.996;2022-08-19T04:43:05;25.10;;;15.35;;
25079;SDS011;13071;48.868;9.996;2022-08-19T04:45:31;29.30;;;16.48;;
25079;SDS011;13071;48.868;9.996;2022-08-19T04:47:59;24.00;;;14.27;;
25079;SDS011;13071;48.868;9.996;2022-08-19T04:50:26;26.45;;;15.38;;
25079;SDS011;13071;48.868;9.996;2022-08-19T04:52:53;28.52;;;16.83;;
25079;SDS011;13071;48.868;9.996;2022-08-19T04:55:21;25.45;;;15.35;;
25079;SDS011;13071;48.868;9.996;2022-08-19T04:57:48;26.90;;;15.00;;
25079;SDS011;13071;48.868;9.996;2022-08-19T05:00:15;25.38;;;14.65;;
25079;SDS011;13071;48.868;9.996;2022-08-19T05:02:42;26.50;;;15.50;;
25079;SDS011;13071;48.868;9.996;2022-08-19T05:05:10;26.38;;;15.70;;
25079;SDS011;13071;48.868;9.996;2022-08-19T05:07:37;25.92;;;15.20;;
25079;SDS011;13071;48.868;9.996;2022-08-19T05:10:06;27.23;;;15.35;;
25079;SDS011;13071;48.868;9.996;2022-08-19T05:12:33;22.40;;;14.90;;
25079;SDS011;13071;48.868;9.996;2022-08-19T05:15:00;23.65;;;14.50;;
25079;SDS011;13071;48.868;9.996;2022-08-19T05:17:28;27.48;;;15.10;;
25079;SDS011;13071;48.868;9.996;2022-08-19T05:19:55;24.42;;;15.27;;
25079;SDS011;13071;48.868;9.996;2022-08-19T05:22:41;28.63;;;15.32;;
25079;SDS011;13071;48.868;9.996;2022-08-19T05:25:10;26.50;;;15.35;;
25079;SDS011;13071;48.868;9.996;2022-08-19T05:27:38;28.45;;;16.05;;
25079;SDS011;13071;48.868;9.996;2022-08-19T05:30:06;29.17;;;15.63;;
25079;SDS011;13071;48.868;9.996;2022-08-19T05:32:34;26.52;;;15.00;;
25079;SDS011;13071;48.868;9.996;2022-08-19T05:35:00;26.58;;;15.70;;
25079;SDS011;13071;48.868;9.996;2022-08-19T05:37:27;30.80;;;16.33;;
25079;SDS011;13071;48.868;9.996;2022-08-19T05:39:55;31.08;;;15.15;;
25079;SDS011;13071;48.868;9.996;2022-08-19T05:42:22;31.65;;;17.08;;
25079;SDS011;13071;48.868;9.996;2022-08-19T05:44:49;28.75;;;17.30;;
25079;SDS011;13071;48.868;9.996;2022-08-19T05:47:17;28.63;;;15.65;;
25079;SDS011;13071;48.868;9.996;2022-08-19T05:49:45;29.50;;;16.13;;
25079;SDS011;13071;48.868;9.996;2022-08-19T05:52:12;29.83;;;16.63;;
25079;SDS011;13071;48.868;9.996;2022-08-19T05:54:41;31.20;;;15.27;;
25079;SDS011;13071;48.868;9.996;2022-08-19T05:57:11;26.90;;;14.50;;
25079;SDS011;13071;48.868;9.996;2022-08-19T05:59:38;34.60;;;16.52;;
25079;SDS011;13071;48.868;9.996;2022-08-19T06:02:05;34.22;;;17.88;;
25079;SDS011;13071;48.868;9.996;2022-08-19T06:04:32;29.63;;;16.08;;
25079;SDS011;13071;48.868;9.996;2022-08-19T06:06:59;31.92;;;15.75;;
25079;SDS011;13071;48.868;9.996;2022-08-19T06:09:26;32.70;;;16.48;;
25079;SDS011;13071;48.868;9.996;2022-08-19T06:11:54;30.65;;;16.02;;
25079;SDS011;13071;48.868;9.996;2022-08-19T06:14:25;29.27;;;15.57;;
25079;SDS011;13071;48.868;9.996;2022-08-19T06:16:54;28.33;;;15.93;;
25079;SDS011;13071;48.868;9.996;2022-08-19T06:19:21;30.20;;;16.42;;
25079;SDS011;13071;48.868;9.996;2022-08-19T06:21:50;27.73;;;15.73;;
25079;SDS011;13071;48.868;9.996;2022-08-19T06:24:18;34.22;;;17.20;;
25079;SDS011;13071;48.868;9.996;2022-08-19T06:26:48;26.83;;;15.38;;
25079;SDS011;13071;48.868;9.996;2022-08-19T06:29:18;28.35;;;15.98;;
25079;SDS011;13071;48.868;9.996;2022-08-19T06:31:48;28.35;;;15.88;;
25079;SDS011;13071;48.868;9.996;2022-08-19T06:34:17;29.25;;;15.95;;
25079;SDS011;13071;48.868;9.996;2022-08-19T06:36:45;27.67;;;15.07;;
25079;SDS011;13071;48.868;9.996;2022-08-19T06:39:14;32.50;;;16.23;;
25079;SDS011;13071;48.868;9.996;2022-08-19T06:41:44;27.73;;;16.17;;
25079;SDS011;13071;48.868;9.996;2022-08-19T06:44:12;28.90;;;15.82;;
25079;SDS011;13071;48.868;9.996;2022-08-19T06:46:39;27.13;;;14.52;;
25079;SDS011;13071;48.868;9.996;2022-08-19T06:49:08;28.60;;;15.45;;
25079;SDS011;13071;48.868;9.996;2022-08-19T06:51:39;29.63;;;15.98;;
25079;SDS011;13071;48.868;9.996;2022-08-19T06:54:06;27.90;;;15.68;;
25079;SDS011;13071;48.868;9.996;2022-08-19T06:56:33;32.50;;;15.85;;
25079;SDS011;13071;48.868;9.996;2022-08-19T06:59:00;34.35;;;16.52;;
25079;SDS011;13071;48.868;9.996;2022-08-19T07:01:27;28.30;;;14.63;;
25079;SDS011;13071;48.868;9.996;2022-08-19T07:03:54;29.63;;;16.13;;
25079;SDS011;13071;48.868;9.996;2022-08-19T07:06:23;30.05;;;15.32;;
25079;SDS011;13071;48.868;9.996;2022-08-19T07:08:50;30.27;;;15.52;;
25079;SDS011;13071;48.868;9.996;2022-08-19T07:11:17;27.92;;;15.43;;
25079;SDS011;13071;48.868;9.996;2022-08-19T07:13:45;30.35;;;16.08;;
25079;SDS011;13071;48.868;9.996;2022-08-19T07:16:15;33.88;;;16.77;;
25079;SDS011;13071;48.868;9.996;2022-08-19T07:18:44;31.88;;;16.33;;
25079;SDS011;13071;48.868;9.996;2022-08-19T07:21:11;31.27;;;16.15;;
25079;SDS011;13071;48.868;9.996;2022-08-19T07:23:41;27.10;;;14.95;;
25079;SDS011;13071;48.868;9.996;2022-08-19T07:26:08;30.40;;;15.43;;
25079;SDS011;13071;48.868;9.996;2022-08-19T07:28:37;29.17;;;15.50;;
25079;SDS011;13071;48.868;9.996;2022-08-19T07:31:05;31.02;;;15.88;;
25079;SDS011;13071;48.868;9.996;2022-08-19T07:33:32;28.25;;;16.10;;
25079;SDS011;13071;48.868;9.996;2022-08-19T07:36:02;34.97;;;16.60;;
25079;SDS011;13071;48.868;9.996;2022-08-19T07:38:29;28.88;;;16.08;;
25079;SDS011;13071;48.868;9.996;2022-08-19T07:40:57;30.58;;;16.55;;
25079;SDS011;13071;48.868;9.996;2022-08-19T07:43:24;30.33;;;17.13;;
25079;SDS011;13071;48.868;9.996;2022-08-19T07:45:52;30.65;;;16.40;;
25079;SDS011;13071;48.868;9.996;2022-08-19T07:48:21;31.67;;;16.13;;
25079;SDS011;13071;48.868;9.996;2022-08-19T07:50:50;27.23;;;15.43;;
25079;SDS011;13071;48.868;9.996;2022-08-19T07:53:17;27.98;;;15.80;;
25079;SDS011;13071;48.868;9.996;2022-08-19T07:55:44;22.80;;;14.20;;
25079;SDS011;13071;48.868;9.996;2022-08-19T07:58:13;31.40;;;16.38;;
25079;SDS011;13071;48.868;9.996;2022-08-19T08:00:41;27.73;;;15.52;;
25079;SDS011;13071;48.868;9.996;2022-08-19T08:03:09;34.50;;;17.05;;
25079;SDS011;13071;48.868;9.996;2022-08-19T08:05:37;29.45;;;15.25;;
25079;SDS011;13071;48.868;9.996;2022-08-19T08:08:21;30.20;;;16.42;;
25079;SDS011;13071;48.868;9.996;2022-08-19T08:11:02;30.00;;;15.50;;
25079;SDS011;13071;48.868;9.996;2022-08-19T08:13:30;31.23;;;16.42;;
25079;SDS011;13071;48.868;9.996;2022-08-19T08:15:59;29.65;;;15.23;;
25079;SDS011;13071;48.868;9.996;2022-08-19T08:18:25;30.73;;;16.10;;
25079;SDS011;13071;48.868;9.996;2022-08-19T08:20:52;33.47;;;16.05;;
25079;SDS011;13071;48.868;9.996;2022-08-19T08:23:19;29.00;;;15.43;;
25079;SDS011;13071;48.868;9.996;2022-08-19T08:25:50;32.95;;;17.45;;
25079;SDS011;13071;48.868;9.996;2022-08-19T08:28:17;32.53;;;16.40;;
25079;SDS011;13071;48.868;9.996;2022-08-19T08:30:46;32.63;;;16.42;;
25079;SDS011;13071;48.868;9.996;2022-08-19T08:33:13;30.45;;;16.45;;
25079;SDS011;13071;48.868;9.996;2022-08-19T08:35:43;30.55;;;15.93;;
25079;SDS011;13071;48.868;9.996;2022-08-19T08:38:10;34.35;;;16.85;;
25079;SDS011;13071;48.868;9.996;2022-08-19T08:40:39;32.30;;;17.58;;
25079;SDS011;13071;48.868;9.996;2022-08-19T08:43:11;33.47;;;16.48;;
25079;SDS011;13071;48.868;9.996;2022-08-19T08:45:52;33.50;;;17.35;;
25079;SDS011;13071;48.868;9.996;2022-08-19T08:48:24;36.08;;;17.20;;
25079;SDS011;13071;48.868;9.996;2022-08-19T08:51:04;34.05;;;17.02;;
25079;SDS011;13071;48.868;9.996;2022-08-19T08:53:36;29.08;;;15.90;;
25079;SDS011;13071;48.868;9.996;2022-08-19T08:56:04;31.25;;;16.90;;
25079;SDS011;13071;48.868;9.996;2022-08-19T08:58:42;32.85;;;17.13;;
25079;SDS011;13071;48.868;9.996;2022-08-19T09:01:16;34.30;;;16.98;;
25079;SDS011;13071;48.868;9.996;2022-08-19T09:03:44;31.98;;;16.80;;
25079;SDS011;13071;48.868;9.996;2022-08-19T09:06:12;29.65;;;16.13;;
25079;SDS011;13071;48.868;9.996;2022-08-19T09:08:48;28.88;;;15.63;;
25079;SDS011;13071;48.868;9.996;2022-08-19T09:11:31;30.42;;;16.58;;
25079;SDS011;13071;48.868;9.996;2022-08-19T09:14:08;28.63;;;15.65;;
25079;SDS011;13071;48.868;9.996;2022-08-19T09:16:42;30.52;;;15.68;;
25079;SDS011;13071;48.868;9.996;2022-08-19T09:19:09;34.50;;;15.85;;
25079;SDS011;13071;48.868;9.996;2022-08-19T09:21:36;32.80;;;16.52;;
25079;SDS011;13071;48.868;9.996;2022-08-19T09:24:03;35.33;;;16.48;;
25079;SDS011;13071;48.868;9.996;2022-08-19T09:26:32;32.08;;;15.75;;
25079;SDS011;13071;48.868;9.996;2022-08-19T09:28:59;26.83;;;14.90;;
25079;SDS011;13071;48.868;9.996;2022-08-19T09:31:28;34.22;;;16.90;;
25079;SDS011;13071;48.868;9.996;2022-08-19T09:33:57;28.55;;;15.93;;
25079;SDS011;13071;48.868;9.996;2022-08-19T09:36:24;30.48;;;16.45;;
25079;SDS011;13071;48.868;9.996;2022-08-19T09:38:54;30.73;;;16.20;;
25079;SDS011;13071;48.868;9.996;2022-08-19T09:41:22;31.85;;;16.58;;
25079;SDS011;13071;48.868;9.996;2022-08-19T09:43:51;34.97;;;16.23;;
25079;SDS011;13071;48.868;9.996;2022-08-19T09:46:20;29.08;;;15.55;;
25079;SDS011;13071;48.868;9.996;2022-08-19T09:48:49;26.40;;;14.30;;
25079;SDS011;13071;48.868;9.996;2022-08-19T09:51:19;35.10;;;17.67;;
25079;SDS011;13071;48.868;9.996;2022-08-19T09:53:47;30.98;;;16.90;;
25079;SDS011;13071;48.868;9.996;2022-08-19T09:56:16;32.03;;;15.60;;
25079;SDS011;13071;48.868;9.996;2022-08-19T09:58:44;29.52;;;16.55;;
25079;SDS011;13071;48.868;9.996;2022-08-19T10:01:15;32.30;;;18.75;;
25079;SDS011;13071;48.868;9.996;2022-08-19T10:03:46;30.85;;;16.05;;
25079;SDS011;13071;48.868;9.996;2022-08-19T10:06:13;31.23;;;16.52;;
25079;SDS011;13071;48.868;9.996;2022-08-19T10:08:40;30.48;;;14.93;;
25079;SDS011;13071;48.868;9.996;2022-08-19T10:11:07;26.52;;;16.05;;
25079;SDS011;13071;48.868;9.996;2022-08-19T10:13:35;30.10;;;15.20;;
25079;SDS011;13071;48.868;9.996;2022-08-19T10:16:03;28.85;;;15.73;;
25079;SDS011;13071;48.868;9.996;2022-08-19T10:18:31;29.77;;;15.50;;
25079;SDS011;13071;48.868;9.996;2022-08-19T10:21:02;30.48;;;15.52;;
25079;SDS011;13071;48.868;9.996;2022-08-19T10:23:33;28.58;;;15.48;;
25079;SDS011;13071;48.868;9.996;2022-08-19T10:26:02;31.05;;;14.60;;
25079;SDS011;13071;48.868;9.996;2022-08-19T10:28:31;33.65;;;15.68;;
25079;SDS011;13071;48.868;9.996;2022-08-19T10:30:58;28.98;;;15.20;;
25079;SDS011;13071;48.868;9.996;2022-08-19T10:33:29;29.13;;;15.57;;
25079;SDS011;13071;48.868;9.996;2022-08-19T10:35:58;35.92;;;16.90;;
25079;SDS011;13071;48.868;9.996;2022-08-19T10:38:25;26.40;;;14.57;;
25079;SDS011;13071;48.868;9.996;2022-08-19T10:40:53;28.77;;;16.60;;
25079;SDS011;13071;48.868;9.996;2022-08-19T10:43:21;32.33;;;16.17;;
25079;SDS011;13071;48.868;9.996;2022-08-19T10:45:51;30.55;;;16.13;;
25079;SDS011;13071;48.868;9.996;2022-08-19T10:48:19;27.52;;;15.25;;
25079;SDS011;13071;48.868;9.996;2022-08-19T10:50:45;30.83;;;15.60;;
25079;SDS011;13071;48.868;9.996;2022-08-19T10:53:29;26.20;;;15.25;;
25079;SDS011;13071;48.868;9.996;2022-08-19T10:55:56;32.92;;;15.40;;
25079;SDS011;13071;48.868;9.996;2022-08-19T10:58:41;31.67;;;16.27;;
25079;SDS011;13071;48.868;9.996;2022-08-19T11:01:09;32.58;;;16.20;;
25079;SDS011;13071;48.868;9.996;2022-08-19T11:03:36;31.00;;;16.27;;
25079;SDS011;13071;48.868;9.996;2022-08-19T11:06:03;39.00;;;17.80;;
25079;SDS011;13071;48.868;9.996;2022-08-19T11:08:32;34.75;;;17.40;;
25079;SDS011;13071;48.868;9.996;2022-08-19T11:11:00;35.40;;;17.52;;
25079;SDS011;13071;48.868;9.996;2022-08-19T11:13:28;34.40;;;17.92;;
25079;SDS011;13071;48.868;9.996;2022-08-19T11:16:00;33.35;;;18.08;;
25079;SDS011;13071;48.868;9.996;2022-08-19T11:18:29;36.47;;;18.35;;
25079;SDS011;13071;48.868;9.996;2022-08-19T11:21:04;36.90;;;18.05;;
25079;SDS011;13071;48.868;9.996;2022-08-19T11:23:31;34.83;;;17.17;;
25079;SDS011;13071;48.868;9.996;2022-08-19T11:25:58;36.35;;;17.20;;
25079;SDS011;13071;48.868;9.996;2022-08-19T11:28:26;34.08;;;17.58;;
25079;SDS011;13071;48.868;9.996;2022-08-19T11:30:53;33.80;;;17.77;;
25079;SDS011;13071;48.868;9.996;2022-08-19T11:33:21;34.75;;;17.63;;
25079;SDS011;13071;48.868;9.996;2022-08-19T11:35:48;36.00;;;17.60;;
25079;SDS011;13071;48.868;9.996;2022-08-19T11:38:15;35.97;;;17.67;;
25079;SDS011;13071;48.868;9.996;2022-08-19T11:40:42;33.50;;;17.42;;
25079;SDS011;13071;48.868;9.996;2022-08-19T11:43:09;39.80;;;18.15;;
25079;SDS011;13071;48.868;9.996;2022-08-19T11:45:35;39.90;;;18.15;;
25079;SDS011;13071;48.868;9.996;2022-08-19T11:48:02;33.30;;;18.42;;
25079;SDS011;13071;48.868;9.996;2022-08-19T11:50:30;41.53;;;18.27;;
25079;SDS011;13071;48.868;9.996;2022-08-19T11:52:57;39.38;;;17.98;;
25079;SDS011;13071;48.868;9.996;2022-08-19T11:55:23;36.92;;;17.40;;
25079;SDS011;13071;48.868;9.996;2022-08-19T11:57:50;34.25;;;17.45;;
25079;SDS011;13071;48.868;9.996;2022-08-19T12:00:17;36.28;;;17.92;;
25079;SDS011;13071;48.868;9.996;2022-08-19T12:02:45;35.03;;;17.55;;
25079;SDS011;13071;48.868;9.996;2022-08-19T12:05:12;30.08;;;16.50;;
25079;SDS011;13071;48.868;9.996;2022-08-19T12:07:40;36.33;;;19.02;;
25079;SDS011;13071;48.868;9.996;2022-08-19T12:10:07;38.17;;;17.08;;
25079;SDS011;13071;48.868;9.996;2022-08-19T12:12:34;36.78;;;18.95;;
25079;SDS011;13071;48.868;9.996;2022-08-19T12:15:03;34.90;;;18.20;;
25079;SDS011;13071;48.868;9.996;2022-08-19T12:17:30;37.03;;;18.02;;
25079;SDS011;13071;48.868;9.996;2022-08-19T12:19:56;39.78;;;18.15;;
25079;SDS011;13071;48.868;9.996;2022-08-19T12:22:23;35.17;;;15.98;;
25079;SDS011;13071;48.868;9.996;2022-08-19T12:24:51;34.30;;;17.60;;
25079;SDS011;13071;48.868;9.996;2022-08-19T12:27:18;31.05;;;16.85;;
25079;SDS011;13071;48.868;9.996;2022-08-19T12:29:45;32.17;;;17.05;;
25079;SDS011;13071;48.868;9.996;2022-08-19T12:32:12;30.13;;;16.75;;
25079;SDS011;13071;48.868;9.996;2022-08-19T12:34:39;26.80;;;14.60;;
25079;SDS011;13071;48.868;9.996;2022-08-19T12:37:06;31.67;;;16.25;;
25079;SDS011;13071;48.868;9.996;2022-08-19T12:39:34;29.13;;;15.55;;
25079;SDS011;13071;48.868;9.996;2022-08-19T12:42:03;30.73;;;15.85;;
25079;SDS011;13071;48.868;9.996;2022-08-19T12:44:31;32.08;;;16.02;;
25079;SDS011;13071;48.868;9.996;2022-08-19T12:46:57;30.52;;;16.27;;
25079;SDS011;13071;48.868;9.996;2022-08-19T12:49:24;29.08;;;15.00;;
25079;SDS011;13071;48.868;9.996;2022-08-19T12:51:53;28.33;;;15.85;;
25079;SDS011;13071;48.868;9.996;2022-08-19T12:54:19;31.15;;;17.08;;
25079;SDS011;13071;48.868;9.996;2022-08-19T12:56:46;27.63;;;15.90;;
25079;SDS011;13071;48.868;9.996;2022-08-19T12:59:14;30.85;;;16.35;;
25079;SDS011;13071;48.868;9.996;2022-08-19T13:01:42;24.45;;;14.13;;
25079;SDS011;13071;48.868;9.996;2022-08-19T13:04:10;25.15;;;13.85;;
25079;SDS011;13071;48.868;9.996;2022-08-19T13:06:36;26.25;;;13.70;;
25079;SDS011;13071;48.868;9.996;2022-08-19T13:09:03;23.85;;;12.98;;
25079;SDS011;13071;48.868;9.996;2022-08-19T13:11:30;20.98;;;12.27;;
25079;SDS011;13071;48.868;9.996;2022-08-19T13:13:57;20.67;;;11.85;;
25079;SDS011;13071;48.868;9.996;2022-08-19T13:16:26;22.20;;;12.20;;
25079;SDS011;13071;48.868;9.996;2022-08-19T13:18:53;19.38;;;11.52;;
25079;SDS011;13071;48.868;9.996;2022-08-19T13:21:21;20.58;;;11.15;;
25079;SDS011;13071;48.868;9.996;2022-08-19T13:23:49;19.75;;;11.85;;
25079;SDS011;13071;48.868;9.996;2022-08-19T13:26:16;23.40;;;11.70;;
25079;SDS011;13071;48.868;9.996;2022-08-19T13:28:43;19.15;;;11.50;;
25079;SDS011;13071;48.868;9.996;2022-08-19T13:31:30;19.35;;;10.65;;
25079;SDS011;13071;48.868;9.996;2022-08-19T13:34:16;15.63;;;10.10;;
25079;SDS011;13071;48.868;9.996;2022-08-19T13:36:44;14.88;;;9.65;;
25079;SDS011;13071;48.868;9.996;2022-08-19T13:39:11;15.68;;;9.88;;
25079;SDS011;13071;48.868;9.996;2022-08-19T13:41:42;18.27;;;10.27;;
25079;SDS011;13071;48.868;9.996;2022-08-19T13:44:12;16.50;;;9.55;;
25079;SDS011;13071;48.868;9.996;2022-08-19T13:46:41;18.52;;;10.77;;
25079;SDS011;13071;48.868;9.996;2022-08-19T13:49:10;19.88;;;10.82;;
25079;SDS011;13071;48.868;9.996;2022-08-19T13:51:37;15.68;;;9.30;;
25079;SDS011;13071;48.868;9.996;2022-08-19T13:54:05;16.08;;;9.85;;
25079;SDS011;13071;48.868;9.996;2022-08-19T13:56:31;17.20;;;11.75;;
25079;SDS011;13071;48.868;9.996;2022-08-19T13:58:58;12.57;;;9.18;;
25079;SDS011;13071;48.868;9.996;2022-08-19T14:01:25;17.48;;;10.20;;
25079;SDS011;13071;48.868;9.996;2022-08-19T14:03:53;15.00;;;9.60;;
25079;SDS011;13071;48.868;9.996;2022-08-19T14:06:20;15.35;;;9.50;;
25079;SDS011;13071;48.868;9.996;2022-08-19T14:08:47;16.27;;;9.50;;
25079;SDS011;13071;48.868;9.996;2022-08-19T14:11:15;16.20;;;10.02;;
25079;SDS011;13071;48.868;9.996;2022-08-19T14:13:41;17.90;;;11.75;;
25079;SDS011;13071;48.868;9.996;2022-08-19T14:16:10;15.75;;;9.93;;
25079;SDS011;13071;48.868;9.996;2022-08-19T14:18:38;15.75;;;11.05;;
25079;SDS011;13071;48.868;9.996;2022-08-19T14:21:07;15.18;;;10.07;;
25079;SDS011;13071;48.868;9.996;2022-08-19T14:23:39;14.30;;;9.30;;
25079;SDS011;13071;48.868;9.996;2022-08-19T14:26:06;16.80;;;10.38;;
25079;SDS011;13071;48.868;9.996;2022-08-19T14:28:34;14.57;;;9.43;;